Time;durP1;ratioP1;P1;durP2;ratioP2;P2;SDS_P1;SDS_P2;PMS_P1;PMS_P2;Temp;Humidity;BMP_temperature;BMP_pressure;BME280_temperature;BME280_humidity;BME280_pressure;Samples;Min_cycle;Max_cycle;Signal;HPM_P1;HPM_P2
2022/04/14 00:00:05;;;;;;;12.50;8.20;;;9.40;99.90;;;;;;5062490;28;20557;-76
2022/04/14 00:02:31;;;;;;;10.75;7.85;;;9.30;99.90;;;;;;5060115;28;20056;-76
2022/04/14 00:04:57;;;;;;;12.65;8.52;;;9.30;99.90;;;;;;5064981;28;20056;-76
2022/04/14 00:07:23;;;;;;;13.77;8.82;;;9.10;99.90;;;;;;5059087;28;20029;-76
2022/04/14 00:09:49;;;;;;;15.25;8.48;;;9.20;99.90;;;;;;5052857;28;20041;-75
2022/04/14 00:12:15;;;;;;;15.70;8.55;;;9.20;99.90;;;;;;5067043;28;20036;-75
2022/04/14 00:14:41;;;;;;;13.25;8.77;;;8.90;99.90;;;;;;5068271;28;20044;-75
2022/04/14 00:17:07;;;;;;;15.38;8.35;;;8.80;99.90;;;;;;5059498;28;20079;-75
2022/04/14 00:19:33;;;;;;;13.60;8.27;;;8.80;99.90;;;;;;5061479;28;20035;-76
2022/04/14 00:21:58;;;;;;;12.50;7.88;;;8.90;99.90;;;;;;5063803;28;20020;-76
2022/04/14 00:24:24;;;;;;;13.00;8.43;;;8.90;99.90;;;;;;5069092;28;20112;-76
2022/04/14 00:26:50;;;;;;;13.93;8.48;;;8.90;99.90;;;;;;5066807;28;20026;-75
2022/04/14 00:29:16;;;;;;;10.75;7.88;;;8.90;99.90;;;;;;5064545;28;20056;-75
2022/04/14 00:31:41;;;;;;;10.70;6.93;;;8.80;99.90;;;;;;5064384;28;20032;-76
2022/04/14 00:34:07;;;;;;;11.77;8.02;;;8.70;99.90;;;;;;5060003;28;20498;-75
2022/04/14 00:36:33;;;;;;;9.73;7.20;;;8.90;99.90;;;;;;5067488;28;20111;-75
2022/04/14 00:38:59;;;;;;;9.93;6.60;;;8.90;99.90;;;;;;5060509;28;20509;-75
2022/04/14 00:41:27;;;;;;;9.55;6.47;;;9.00;99.90;;;;;;5064471;28;20031;-75
2022/04/14 00:43:55;;;;;;;8.95;5.43;;;9.00;99.90;;;;;;5062905;28;20056;-75
2022/04/14 00:46:21;;;;;;;7.32;5.15;;;8.90;99.90;;;;;;5056923;28;20470;-75
2022/04/14 00:48:49;;;;;;;7.50;5.88;;;8.80;99.90;;;;;;5059694;28;20025;-75
2022/04/14 00:51:15;;;;;;;10.90;6.28;;;8.80;99.90;;;;;;5062596;28;20507;-75
2022/04/14 00:53:41;;;;;;;7.45;4.88;;;8.90;99.90;;;;;;5067758;28;20157;-75
2022/04/14 00:56:07;;;;;;;8.38;5.50;;;8.80;99.90;;;;;;5064216;28;20041;-75
2022/04/14 00:58:36;;;;;;;7.88;5.70;;;8.80;99.90;;;;;;5069966;28;20035;-75
2022/04/14 01:01:05;;;;;;;7.70;5.68;;;8.80;99.90;;;;;;5062018;28;20021;-75
2022/04/14 01:03:32;;;;;;;6.60;4.78;;;8.70;99.90;;;;;;5063348;28;20078;-75
2022/04/14 01:05:58;;;;;;;10.35;5.30;;;8.80;99.90;;;;;;5066554;28;20029;-76
2022/04/14 01:08:27;;;;;;;7.55;4.88;;;8.90;99.90;;;;;;5068263;28;20494;-76
2022/04/14 01:10:54;;;;;;;7.88;4.95;;;8.90;99.90;;;;;;5059821;28;20494;-76
2022/04/14 01:13:21;;;;;;;7.28;5.57;;;9.00;99.90;;;;;;5057854;28;20035;-76
2022/04/14 01:15:47;;;;;;;7.35;4.80;;;9.10;99.90;;;;;;5067322;28;20031;-75
2022/04/14 01:18:14;;;;;;;6.28;4.47;;;9.20;99.90;;;;;;5063412;28;20052;-75
2022/04/14 01:20:44;;;;;;;5.28;4.15;;;9.30;99.90;;;;;;5064250;28;20096;-75
2022/04/14 01:23:11;;;;;;;5.47;4.20;;;9.30;99.90;;;;;;5061245;28;20021;-75
2022/04/14 01:25:38;;;;;;;7.03;4.65;;;9.30;99.90;;;;;;5060671;28;20046;-76
2022/04/14 01:28:04;;;;;;;7.22;4.28;;;9.30;99.90;;;;;;5060240;28;20039;-76
2022/04/14 01:30:31;;;;;;;6.78;3.92;;;9.30;99.90;;;;;;5070072;28;20103;-76
2022/04/14 01:32:57;;;;;;;6.30;5.00;;;9.30;99.90;;;;;;5068877;28;20039;-76
2022/04/14 01:35:24;;;;;;;5.40;3.60;;;9.20;99.90;;;;;;5064076;28;20033;-76
2022/04/14 01:37:50;;;;;;;4.50;3.60;;;9.20;99.90;;;;;;5062951;28;20028;-76
2022/04/14 01:40:16;;;;;;;4.80;3.78;;;9.20;99.90;;;;;;5067487;28;20091;-76
2022/04/14 01:42:42;;;;;;;5.88;4.05;;;9.10;99.90;;;;;;5066924;28;20074;-76
2022/04/14 01:45:10;;;;;;;4.53;3.53;;;9.10;99.90;;;;;;5066669;28;20013;-76
2022/04/14 01:47:43;;;;;;;4.57;3.53;;;9.10;99.90;;;;;;5071097;28;20071;-76
2022/04/14 01:50:12;;;;;;;4.22;3.55;;;9.10;99.90;;;;;;5064404;28;20099;-76
2022/04/14 01:52:39;;;;;;;4.75;3.58;;;9.10;99.90;;;;;;5063243;28;20090;-76
2022/04/14 01:55:06;;;;;;;4.35;3.53;;;9.10;99.90;;;;;;5059016;28;20049;-76
2022/04/14 01:57:32;;;;;;;4.47;3.80;;;9.10;99.90;;;;;;5067757;28;20023;-76
2022/04/14 01:59:59;;;;;;;5.95;4.22;;;9.00;99.90;;;;;;5069911;28;20024;-75
2022/04/14 02:02:25;;;;;;;4.10;3.55;;;9.00;99.90;;;;;;5066618;28;20102;-76
2022/04/14 02:04:51;;;;;;;4.75;3.20;;;8.90;99.90;;;;;;5063723;28;20497;-75
2022/04/14 02:07:17;;;;;;;4.85;3.63;;;8.90;99.90;;;;;;5064712;28;20028;-75
2022/04/14 02:09:43;;;;;;;4.00;3.60;;;8.90;99.90;;;;;;5065550;28;20090;-76
2022/04/14 02:12:11;;;;;;;5.43;3.55;;;9.00;99.90;;;;;;5065425;28;20028;-76
2022/04/14 02:14:37;;;;;;;5.15;4.03;;;9.10;99.90;;;;;;5067330;28;20111;-76
2022/04/14 02:17:03;;;;;;;5.57;3.63;;;9.10;99.90;;;;;;5065328;28;20040;-75
2022/04/14 02:19:29;;;;;;;6.40;3.75;;;9.20;99.90;;;;;;5067577;28;20032;-75
2022/04/14 02:21:58;;;;;;;4.18;3.25;;;9.10;99.90;;;;;;5069238;28;20031;-75
2022/04/14 02:24:24;;;;;;;5.20;3.28;;;9.10;99.90;;;;;;5065075;28;20115;-75
2022/04/14 02:26:50;;;;;;;6.13;3.42;;;9.10;99.90;;;;;;5061860;28;20021;-75
2022/04/14 02:29:15;;;;;;;4.65;2.97;;;9.00;99.90;;;;;;5066605;28;20021;-75
2022/04/14 02:31:41;;;;;;;4.28;3.05;;;9.00;99.90;;;;;;5064210;28;20067;-75
2022/04/14 02:34:07;;;;;;;4.63;3.00;;;9.00;99.90;;;;;;5067923;28;20498;-75
2022/04/14 02:36:32;;;;;;;4.15;2.72;;;9.00;99.90;;;;;;5063284;28;20097;-75
2022/04/14 02:38:58;;;;;;;3.42;2.60;;;9.00;99.90;;;;;;5069406;28;20035;-75
2022/04/14 02:41:24;;;;;;;2.85;2.53;;;9.00;99.90;;;;;;5065570;28;20032;-75
2022/04/14 02:43:50;;;;;;;3.35;2.90;;;8.90;99.90;;;;;;5064859;28;20069;-75
2022/04/14 02:46:16;;;;;;;2.92;2.63;;;8.80;99.90;;;;;;5062008;28;20482;-76
2022/04/14 02:48:41;;;;;;;2.78;2.40;;;8.80;99.90;;;;;;5065334;28;20009;-76
2022/04/14 02:51:07;;;;;;;3.45;2.67;;;8.90;99.90;;;;;;5068847;28;20460;-75
2022/04/14 02:53:33;;;;;;;2.53;2.30;;;8.80;99.90;;;;;;5068292;28;20028;-75
2022/04/14 02:55:59;;;;;;;2.42;2.20;;;8.80;99.90;;;;;;5056854;28;20051;-75
2022/04/14 02:58:24;;;;;;;2.92;2.63;;;8.80;99.90;;;;;;5067103;28;20596;-76
2022/04/14 03:00:50;;;;;;;5.28;2.28;;;8.80;99.90;;;;;;5065549;28;20070;-76
2022/04/14 03:03:17;;;;;;;2.88;2.28;;;8.80;99.90;;;;;;5069581;28;20517;-76
2022/04/14 03:05:42;;;;;;;2.83;2.58;;;8.70;99.90;;;;;;5069580;28;20162;-76
2022/04/14 03:08:08;;;;;;;2.70;2.15;;;8.70;99.90;;;;;;5061674;28;20882;-76
2022/04/14 03:10:35;;;;;;;3.95;2.83;;;8.80;99.90;;;;;;5065979;28;20039;-76
2022/04/14 03:13:01;;;;;;;2.63;2.35;;;8.80;99.90;;;;;;5065418;28;20078;-76
2022/04/14 03:15:26;;;;;;;3.40;2.92;;;8.80;99.90;;;;;;5064747;28;20048;-76
2022/04/14 03:17:53;;;;;;;13.45;3.55;;;8.80;99.90;;;;;;5062813;28;20697;-76
2022/04/14 03:20:19;;;;;;;2.90;2.60;;;8.70;99.90;;;;;;5068582;28;20119;-75
2022/04/14 03:22:45;;;;;;;4.45;2.67;;;8.80;99.90;;;;;;5060813;28;20159;-76
2022/04/14 03:25:13;;;;;;;4.82;2.58;;;8.90;99.90;;;;;;5062721;28;20043;-76
2022/04/14 03:27:39;;;;;;;4.22;3.03;;;8.80;99.90;;;;;;5061349;28;20031;-76
2022/04/14 03:30:08;;;;;;;4.60;2.53;;;8.80;99.90;;;;;;5072141;28;20013;-76
2022/04/14 03:32:46;;;;;;;3.30;2.50;;;8.80;99.90;;;;;;5070662;28;20031;-76
2022/04/14 03:35:13;;;;;;;2.83;2.30;;;8.80;99.90;;;;;;5062431;28;20017;-76
2022/04/14 03:37:40;;;;;;;3.60;2.53;;;8.90;99.90;;;;;;5063325;28;20118;-76
2022/04/14 03:40:06;;;;;;;3.00;2.60;;;8.90;99.90;;;;;;5060840;28;20017;-76
2022/04/14 03:42:33;;;;;;;4.07;2.38;;;8.90;99.90;;;;;;5063181;28;20020;-76
2022/04/14 03:44:59;;;;;;;3.35;2.17;;;9.00;99.90;;;;;;5064736;28;20020;-76
2022/04/14 03:47:25;;;;;;;2.50;2.30;;;9.00;99.90;;;;;;5060993;28;20066;-80
2022/04/14 03:49:51;;;;;;;2.95;2.50;;;9.00;99.90;;;;;;5061460;28;20039;-82
2022/04/14 03:52:17;;;;;;;3.00;2.67;;;9.00;99.90;;;;;;5061606;28;20039;-82
2022/04/14 03:54:44;;;;;;;3.55;2.58;;;9.00;99.90;;;;;;5061362;28;20629;-82
2022/04/14 03:57:10;;;;;;;2.42;2.22;;;9.10;99.90;;;;;;5060874;28;20146;-82
2022/04/14 03:59:36;;;;;;;3.00;2.53;;;9.10;99.90;;;;;;5063638;28;20038;-82
2022/04/14 04:02:02;;;;;;;3.85;2.40;;;9.10;99.90;;;;;;5066488;28;20024;-82
2022/04/14 04:04:28;;;;;;;2.47;2.28;;;9.20;99.90;;;;;;5066138;28;20020;-82
2022/04/14 04:06:53;;;;;;;2.83;2.33;;;9.20;99.90;;;;;;5066989;28;20421;-82
2022/04/14 04:09:20;;;;;;;3.10;2.50;;;9.00;99.90;;;;;;5066483;28;20036;-81
2022/04/14 04:11:46;;;;;;;2.97;2.67;;;8.90;99.90;;;;;;5061271;28;20075;-81
2022/04/14 04:14:11;;;;;;;2.97;2.50;;;8.90;99.90;;;;;;5060093;28;20529;-81
2022/04/14 04:16:37;;;;;;;3.03;2.33;;;8.90;99.90;;;;;;5060800;28;20032;-82
2022/04/14 04:19:03;;;;;;;2.15;1.90;;;8.90;99.90;;;;;;5063898;28;20040;-82
2022/04/14 04:21:30;;;;;;;2.72;2.30;;;8.90;99.90;;;;;;5063993;28;20025;-83
2022/04/14 04:23:56;;;;;;;3.25;2.10;;;8.90;99.90;;;;;;5059751;28;20024;-83
2022/04/14 04:26:22;;;;;;;4.18;2.97;;;8.90;99.90;;;;;;5060858;28;20044;-83
2022/04/14 04:28:48;;;;;;;4.25;3.03;;;8.80;99.90;;;;;;5065843;28;20155;-83
2022/04/14 04:31:13;;;;;;;3.63;2.60;;;8.80;99.90;;;;;;5068751;28;20029;-82
2022/04/14 04:33:39;;;;;;;4.50;3.13;;;8.80;99.90;;;;;;5070238;28;20101;-82
2022/04/14 04:36:05;;;;;;;6.30;3.10;;;8.90;99.90;;;;;;5066958;28;20033;-82
2022/04/14 04:38:31;;;;;;;5.30;3.70;;;8.90;99.90;;;;;;5071267;28;20028;-82
2022/04/14 04:40:58;;;;;;;3.15;2.75;;;8.90;99.90;;;;;;5071079;28;20040;-82
2022/04/14 04:43:25;;;;;;;3.78;2.85;;;8.90;99.90;;;;;;5064471;28;20044;-83
2022/04/14 04:45:50;;;;;;;4.35;3.17;;;8.90;99.90;;;;;;5077652;28;20026;-81
2022/04/14 04:48:16;;;;;;;6.03;3.15;;;8.90;99.90;;;;;;5073208;28;20103;-81
2022/04/14 04:50:42;;;;;;;4.75;3.22;;;8.80;99.90;;;;;;5069041;28;20028;-82
2022/04/14 04:53:07;;;;;;;3.72;2.83;;;8.80;99.90;;;;;;5070077;28;20024;-82
2022/04/14 04:55:33;;;;;;;5.95;3.00;;;8.80;99.90;;;;;;5068762;28;20524;-81
2022/04/14 04:57:59;;;;;;;3.53;2.85;;;8.80;99.90;;;;;;5066517;28;20575;-81
2022/04/14 05:00:24;;;;;;;6.93;2.80;;;8.90;99.90;;;;;;5061813;28;20124;-81
2022/04/14 05:02:50;;;;;;;5.15;3.30;;;8.90;99.90;;;;;;5072013;28;20056;-82
2022/04/14 05:05:16;;;;;;;10.10;3.72;;;8.80;99.90;;;;;;5067971;28;20025;-81
2022/04/14 05:07:41;;;;;;;3.30;2.83;;;8.80;99.90;;;;;;5066588;28;20029;-82
2022/04/14 05:10:08;;;;;;;4.22;2.80;;;8.70;99.90;;;;;;5062742;28;20032;-81
2022/04/14 05:12:34;;;;;;;9.02;3.13;;;8.80;99.90;;;;;;5065194;28;20071;-82
2022/04/14 05:14:59;;;;;;;3.70;3.15;;;8.80;99.90;;;;;;5071024;28;20025;-82
2022/04/14 05:17:25;;;;;;;3.45;2.55;;;8.80;99.90;;;;;;5065711;28;20530;-82
2022/04/14 05:19:51;;;;;;;3.88;2.72;;;8.80;99.90;;;;;;5060345;28;20025;-82
2022/04/14 05:22:16;;;;;;;4.72;3.42;;;8.70;99.90;;;;;;5061666;28;20024;-81
2022/04/14 05:24:42;;;;;;;4.13;3.13;;;8.70;99.90;;;;;;5064483;28;20490;-82
2022/04/14 05:27:08;;;;;;;4.35;3.47;;;8.60;99.90;;;;;;5067190;28;20541;-82
2022/04/14 05:29:35;;;;;;;3.35;2.80;;;8.70;99.90;;;;;;5072663;28;20039;-81
2022/04/14 05:32:01;;;;;;;3.53;2.85;;;8.70;99.90;;;;;;5065420;28;20115;-82
2022/04/14 05:34:26;;;;;;;3.53;2.78;;;8.90;99.90;;;;;;5061948;28;20127;-82
2022/04/14 05:36:52;;;;;;;3.72;2.70;;;8.90;99.90;;;;;;5066642;28;20017;-81
2022/04/14 05:39:18;;;;;;;3.85;2.35;;;8.90;99.90;;;;;;5063374;28;20025;-82
2022/04/14 05:41:44;;;;;;;3.15;2.75;;;8.90;99.90;;;;;;5067420;28;20028;-82
2022/04/14 05:44:10;;;;;;;4.60;2.85;;;8.90;99.90;;;;;;5064967;28;20021;-82
2022/04/14 05:46:35;;;;;;;3.58;3.13;;;8.90;99.90;;;;;;5060183;28;20574;-82
2022/04/14 05:49:01;;;;;;;4.35;2.70;;;8.90;99.90;;;;;;5069834;28;20036;-82
2022/04/14 05:51:27;;;;;;;2.67;2.25;;;8.80;99.90;;;;;;5064859;28;20017;-82
2022/04/14 05:53:53;;;;;;;2.75;2.30;;;8.80;99.90;;;;;;5072170;28;20055;-82
2022/04/14 05:56:20;;;;;;;2.60;2.40;;;8.80;99.90;;;;;;5064474;28;20047;-82
2022/04/14 05:58:46;;;;;;;3.38;3.08;;;8.90;99.90;;;;;;5064316;28;20048;-82
2022/04/14 06:01:12;;;;;;;3.05;2.75;;;8.90;99.90;;;;;;5064715;28;20045;-82
2022/04/14 06:03:38;;;;;;;3.38;2.33;;;8.90;99.90;;;;;;5066618;28;20528;-82
2022/04/14 06:06:05;;;;;;;3.00;2.47;;;9.20;99.90;;;;;;5066604;28;20029;-82
2022/04/14 06:08:31;;;;;;;2.47;2.28;;;9.20;99.90;;;;;;5062110;28;20032;-81
2022/04/14 06:10:57;;;;;;;3.05;2.20;;;9.20;99.90;;;;;;5060443;28;20100;-82
2022/04/14 06:13:22;;;;;;;2.50;2.30;;;9.30;99.90;;;;;;5059733;28;20042;-82
2022/04/14 06:15:48;;;;;;;2.47;2.17;;;9.30;99.90;;;;;;5067000;28;20430;-82
2022/04/14 06:18:14;;;;;;;4.00;3.45;;;9.40;99.90;;;;;;5065166;28;20032;-82
2022/04/14 06:20:39;;;;;;;18.75;2.65;;;9.50;99.90;;;;;;5067078;28;20021;-82
2022/04/14 06:23:05;;;;;;;2.70;2.47;;;9.50;99.90;;;;;;5064104;28;20031;-82
2022/04/14 06:25:31;;;;;;;4.38;2.15;;;9.50;99.90;;;;;;5062974;28;20024;-82
2022/04/14 06:27:57;;;;;;;2.55;2.20;;;9.70;99.90;;;;;;5068026;28;20024;-82
2022/04/14 06:30:22;;;;;;;1.80;1.70;;;9.70;99.90;;;;;;5068191;28;20029;-82
2022/04/14 06:33:15;;;;;;;2.40;2.20;;;9.90;99.90;;;;;;5070501;28;20174;-82
2022/04/14 06:35:42;;;;;;;2.20;2.00;;;9.90;99.90;;;;;;5059476;28;20032;-82
2022/04/14 06:38:08;;;;;;;2.17;1.95;;;9.60;99.90;;;;;;5067816;28;20173;-82
2022/04/14 06:40:34;;;;;;;2.15;2.00;;;9.80;99.90;;;;;;5066264;28;20497;-82
2022/04/14 06:43:00;;;;;;;2.85;2.17;;;9.90;99.90;;;;;;5066715;28;20494;-82
2022/04/14 06:45:25;;;;;;;2.25;2.03;;;10.10;99.90;;;;;;5063242;28;20021;-82
2022/04/14 06:47:52;;;;;;;2.00;1.90;;;10.10;99.90;;;;;;5067520;28;20086;-81
2022/04/14 06:50:17;;;;;;;2.20;1.90;;;10.00;99.90;;;;;;5066119;28;20025;-81
2022/04/14 06:52:43;;;;;;;2.70;2.50;;;10.10;99.90;;;;;;5065130;28;20032;-79
2022/04/14 06:55:09;;;;;;;2.50;2.20;;;10.00;99.90;;;;;;5058710;28;20546;-79
2022/04/14 06:57:35;;;;;;;2.17;1.92;;;9.90;99.90;;;;;;5064197;28;20039;-79
2022/04/14 07:00:01;;;;;;;1.95;1.77;;;10.10;99.90;;;;;;5065393;28;20051;-79
2022/04/14 07:02:28;;;;;;;2.22;1.65;;;10.20;99.90;;;;;;5061697;28;20028;-79
2022/04/14 07:04:54;;;;;;;1.98;1.83;;;10.20;99.90;;;;;;5059332;28;20017;-79
2022/04/14 07:07:19;;;;;;;1.58;1.48;;;10.10;99.90;;;;;;5058544;28;20024;-80
2022/04/14 07:09:45;;;;;;;2.00;1.83;;;10.30;99.90;;;;;;5062929;28;20391;-80
2022/04/14 07:12:11;;;;;;;1.98;1.85;;;10.20;99.90;;;;;;5061106;28;20121;-80
2022/04/14 07:14:38;;;;;;;2.58;2.38;;;10.40;99.90;;;;;;5071505;28;20024;-80
2022/04/14 07:17:04;;;;;;;2.53;2.30;;;10.40;99.90;;;;;;5064857;28;20497;-80
2022/04/14 07:19:30;;;;;;;2.80;2.50;;;10.30;99.90;;;;;;5060746;28;20028;-80
2022/04/14 07:21:55;;;;;;;2.35;2.17;;;10.40;99.90;;;;;;5063320;28;20029;-80
2022/04/14 07:24:21;;;;;;;2.10;2.00;;;10.30;99.90;;;;;;5064302;28;20013;-80
2022/04/14 07:26:47;;;;;;;2.47;2.10;;;10.50;99.90;;;;;;5067853;28;20013;-80
2022/04/14 07:29:13;;;;;;;2.72;2.33;;;10.50;99.90;;;;;;5066178;28;20025;-80
2022/04/14 07:31:41;;;;;;;2.55;2.35;;;10.60;99.90;;;;;;5060929;28;20529;-80
2022/04/14 07:34:08;;;;;;;2.10;2.00;;;10.70;99.90;;;;;;5065529;28;20016;-80
2022/04/14 07:36:34;;;;;;;2.38;2.17;;;10.80;99.90;;;;;;5063090;28;20053;-80
2022/04/14 07:39:00;;;;;;;2.22;2.03;;;10.80;99.90;;;;;;5066453;28;20021;-80
2022/04/14 07:41:26;;;;;;;2.53;2.15;;;11.00;99.90;;;;;;5061684;28;20427;-80
2022/04/14 07:43:54;;;;;;;2.58;2.38;;;11.00;99.90;;;;;;5059874;28;20020;-80
2022/04/14 07:46:19;;;;;;;2.53;2.33;;;11.10;99.90;;;;;;5063616;28;20021;-81
2022/04/14 07:48:45;;;;;;;2.22;1.95;;;11.10;99.90;;;;;;5059044;28;20083;-82
2022/04/14 07:51:11;;;;;;;2.53;2.33;;;11.30;99.90;;;;;;5063158;28;20043;-82
2022/04/14 07:53:37;;;;;;;2.50;2.30;;;11.60;99.90;;;;;;5062976;28;20373;-82
2022/04/14 07:56:05;;;;;;;2.90;2.08;;;11.60;99.90;;;;;;5061585;28;20506;-82
2022/04/14 07:58:31;;;;;;;2.67;2.45;;;11.50;99.90;;;;;;5060786;28;20016;-81
2022/04/14 08:00:57;;;;;;;2.67;2.47;;;11.50;99.90;;;;;;5070158;28;20524;-81
2022/04/14 08:03:23;;;;;;;5.30;3.45;;;11.70;99.90;;;;;;5068012;28;20024;-82
2022/04/14 08:05:49;;;;;;;3.53;3.10;;;11.50;99.90;;;;;;5082301;28;20564;-81
2022/04/14 08:08:19;;;;;;;3.25;2.70;;;11.40;99.90;;;;;;5073550;28;20033;-81
2022/04/14 08:10:46;;;;;;;4.60;3.60;;;11.60;99.90;;;;;;5069891;28;20505;-81
2022/04/14 08:13:13;;;;;;;3.53;2.95;;;11.60;99.90;;;;;;5084808;28;20087;-83
2022/04/14 08:15:40;;;;;;;3.00;2.63;;;11.90;99.90;;;;;;5077004;28;20109;-83
2022/04/14 08:18:06;;;;;;;3.17;2.92;;;11.90;99.90;;;;;;5075973;28;20036;-85
2022/04/14 08:20:34;;;;;;;2.92;2.70;;;11.90;99.90;;;;;;5062318;28;20075;-83
2022/04/14 08:23:01;;;;;;;3.63;2.72;;;11.90;99.90;;;;;;5058510;28;20501;-84
2022/04/14 08:25:35;;;;;;;3.08;2.83;;;12.10;99.90;;;;;;5070979;28;20506;-84
2022/04/14 08:28:03;;;;;;;2.72;2.47;;;11.90;99.90;;;;;;5061327;28;20119;-83
2022/04/14 08:30:31;;;;;;;3.25;2.90;;;12.10;99.90;;;;;;5068698;28;20028;-84
2022/04/14 08:32:59;;;;;;;2.72;2.28;;;12.20;99.90;;;;;;5064821;28;20032;-84
2022/04/14 08:35:26;;;;;;;2.72;2.53;;;12.40;99.90;;;;;;5066795;28;20048;-84
2022/04/14 08:37:52;;;;;;;3.30;2.45;;;12.30;99.90;;;;;;5062457;28;20056;-83
2022/04/14 08:40:22;;;;;;;3.88;2.53;;;12.40;99.90;;;;;;5058852;28;20066;-83
2022/04/14 08:43:07;;;;;;;2.90;2.58;;;12.30;99.90;;;;;;5056002;28;20025;-83
2022/04/14 08:45:53;;;;;;;3.17;2.80;;;12.40;99.90;;;;;;5085168;28;20122;-84
2022/04/14 08:48:20;;;;;;;3.13;2.53;;;12.50;99.90;;;;;;5070615;28;20024;-84
2022/04/14 08:50:50;;;;;;;4.25;3.10;;;12.70;99.90;;;;;;5079021;28;20021;-83
2022/04/14 08:53:18;;;;;;;4.28;3.35;;;13.00;99.90;;;;;;5079138;28;20028;-84
2022/04/14 08:55:44;;;;;;;4.95;3.28;;;13.10;99.90;;;;;;5073695;28;20036;-84
2022/04/14 08:58:15;;;;;;;3.25;2.95;;;13.20;99.90;;;;;;5076120;28;20025;-84
2022/04/14 09:00:42;;;;;;;5.30;4.35;;;13.40;99.90;;;;;;5072276;28;20048;-84
2022/04/14 09:03:08;;;;;;;8.20;4.30;;;13.40;99.90;;;;;;5074113;28;20082;-84
2022/04/14 09:05:34;;;;;;;4.47;3.88;;;13.50;99.90;;;;;;5067588;28;20020;-84
2022/04/14 09:08:00;;;;;;;4.38;3.80;;;13.60;99.90;;;;;;5080195;28;20508;-84
2022/04/14 09:10:27;;;;;;;5.75;5.00;;;14.00;99.90;;;;;;5064929;28;20029;-84
2022/04/14 09:12:53;;;;;;;4.20;3.83;;;14.40;99.90;;;;;;5063025;28;20060;-84
2022/04/14 09:15:19;;;;;;;4.00;3.60;;;14.70;99.90;;;;;;5065725;28;20106;-84
2022/04/14 09:17:45;;;;;;;5.20;3.72;;;14.90;99.90;;;;;;5066413;28;20062;-84
2022/04/14 09:20:31;;;;;;;4.22;3.55;;;15.00;99.90;;;;;;5070148;28;20103;-85
2022/04/14 09:23:15;;;;;;;6.35;3.65;;;15.50;99.90;;;;;;5068179;28;20035;-84
2022/04/14 09:25:42;;;;;;;5.25;3.53;;;15.70;99.90;;;;;;5071020;28;20024;-84
2022/04/14 09:28:13;;;;;;;4.63;4.00;;;15.90;99.90;;;;;;5060505;28;20120;-84
2022/04/14 09:30:40;;;;;;;4.57;4.18;;;16.00;99.90;;;;;;5091922;28;20064;-84
2022/04/14 09:33:15;;;;;;;5.32;3.88;;;15.70;99.90;;;;;;5072276;28;20036;-84
2022/04/14 09:35:40;;;;;;;3.38;3.08;;;16.20;99.90;;;;;;5082488;28;20154;-84
2022/04/14 09:38:08;;;;;;;3.97;3.58;;;16.90;99.90;;;;;;5077551;28;20107;-84
2022/04/14 09:40:34;;;;;;;6.18;3.95;;;17.40;99.90;;;;;;5063479;28;20023;-83
2022/04/14 09:43:00;;;;;;;6.32;3.53;;;17.40;99.90;;;;;;5084843;28;20107;-83
2022/04/14 09:45:28;;;;;;;4.50;3.47;;;17.10;99.90;;;;;;5082641;28;20058;-83
2022/04/14 09:48:01;;;;;;;6.40;4.15;;;17.40;99.90;;;;;;5065116;28;20064;-83
2022/04/14 09:50:32;;;;;;;7.25;3.80;;;17.30;99.90;;;;;;5073411;28;20032;-83
2022/04/14 09:53:15;;;;;;;4.70;3.80;;;17.80;99.90;;;;;;5080702;28;20568;-83
2022/04/14 09:56:02;;;;;;;8.43;3.80;;;18.40;99.90;;;;;;5062962;28;20043;-83
2022/04/14 09:58:31;;;;;;;4.95;4.10;;;18.40;99.90;;;;;;5077160;28;20075;-83
2022/04/14 10:00:58;;;;;;;4.00;3.45;;;18.30;99.90;;;;;;5079758;28;20025;-82
2022/04/14 10:03:27;;;;;;;8.07;4.05;;;18.40;99.90;;;;;;5087389;28;20099;-82
2022/04/14 10:05:58;;;;;;;6.03;4.13;;;18.60;99.90;;;;;;5076393;28;20020;-82
2022/04/14 10:08:24;;;;;;;3.75;3.35;;;18.70;99.90;;;;;;5083232;28;20067;-83
2022/04/14 10:11:06;;;;;;;7.07;4.10;;;19.00;99.90;;;;;;5081430;28;20068;-83
2022/04/14 10:13:39;;;;;;;4.05;3.45;;;18.60;99.90;;;;;;5071241;28;20032;-83
2022/04/14 10:16:07;;;;;;;4.93;4.07;;;19.00;99.90;;;;;;5058994;28;20032;-83
2022/04/14 10:18:33;;;;;;;6.43;4.40;;;19.20;99.90;;;;;;5079346;28;20031;-82
2022/04/14 10:20:59;;;;;;;7.55;5.60;;;19.50;99.90;;;;;;5081437;28;20119;-82
2022/04/14 10:23:28;;;;;;;7.85;5.40;;;17.80;99.90;;;;;;5073866;28;20025;-82
2022/04/14 10:25:54;;;;;;;10.93;5.65;;;18.30;99.90;;;;;;5065640;28;20063;-82
2022/04/14 10:28:21;;;;;;;9.23;5.60;;;18.90;99.90;;;;;;5060987;28;20051;-82
2022/04/14 10:30:49;;;;;;;9.57;5.85;;;19.60;99.90;;;;;;5064333;28;20108;-82
2022/04/14 10:33:17;;;;;;;8.43;4.63;;;19.60;99.90;;;;;;5080414;28;20078;-82
2022/04/14 10:35:43;;;;;;;6.32;4.32;;;19.80;99.90;;;;;;5077963;28;20036;-82
2022/04/14 10:38:24;;;;;;;7.68;4.45;;;19.70;99.90;;;;;;5059915;28;20044;-82
2022/04/14 10:40:58;;;;;;;7.18;4.80;;;19.70;99.90;;;;;;5073278;28;20024;-82
2022/04/14 10:43:25;;;;;;;8.25;4.70;;;19.80;99.90;;;;;;5082284;28;20025;-82
2022/04/14 10:45:56;;;;;;;8.77;4.93;;;19.00;99.90;;;;;;5073447;28;20090;-82
2022/04/14 10:48:32;;;;;;;11.43;4.43;;;19.20;99.90;;;;;;5066632;28;20115;-82
2022/04/14 10:51:24;;;;;;;8.00;5.07;;;19.40;99.90;;;;;;5074905;28;20039;-82
2022/04/14 10:53:56;;;;;;;9.55;4.80;;;19.40;99.90;;;;;;5080302;28;20032;-81
2022/04/14 10:56:34;;;;;;;8.13;5.15;;;19.50;99.90;;;;;;5075266;28;20078;-81
2022/04/14 10:59:01;;;;;;;8.88;4.72;;;19.50;99.90;;;;;;5077167;28;20019;-81
2022/04/14 11:01:45;;;;;;;7.50;4.75;;;19.50;99.90;;;;;;5079061;28;20033;-81
2022/04/14 11:04:29;;;;;;;9.93;5.13;;;19.70;99.90;;;;;;5059190;28;20017;-82
2022/04/14 11:06:59;;;;;;;6.90;4.72;;;19.30;99.90;;;;;;5086968;28;20158;-81
2022/04/14 11:09:43;;;;;;;9.00;5.32;;;19.80;99.90;;;;;;5074253;28;20162;-81
2022/04/14 11:12:13;;;;;;;6.22;5.28;;;20.10;99.90;;;;;;5073230;28;20033;-81
2022/04/14 11:15:06;;;;;;;9.13;5.43;;;20.40;99.90;;;;;;5081433;28;20565;-81
2022/04/14 11:17:38;;;;;;;7.55;5.53;;;19.80;99.90;;;;;;5064537;28;20048;-81
2022/04/14 11:20:34;;;;;;;8.68;4.88;;;19.80;99.90;;;;;;5073682;28;20031;-81
2022/04/14 11:23:08;;;;;;;10.02;4.63;;;20.00;99.90;;;;;;5079566;28;20584;-81
2022/04/14 11:25:50;;;;;;;7.40;4.28;;;19.70;99.80;;;;;;5060305;28;20231;-81
2022/04/14 11:28:21;;;;;;;7.82;4.32;;;20.00;99.90;;;;;;5072629;28;20103;-82
2022/04/14 11:31:23;;;;;;;9.60;4.47;;;19.30;99.90;;;;;;5063640;28;20025;-81
2022/04/14 11:33:55;;;;;;;8.38;3.72;;;18.90;99.90;;;;;;5048620;28;20313;-81
2022/04/14 11:36:26;;;;;;;8.98;3.95;;;19.10;99.90;;;;;;5043740;28;20033;-81
2022/04/14 11:38:52;;;;;;;;;;;19.40;99.90;;;;;;5045202;28;20524;-81
2022/04/14 11:41:45;;;;;;;5.78;3.30;;;19.60;99.90;;;;;;5045429;28;20003;-81
2022/04/14 11:44:17;;;;;;;5.68;2.80;;;19.90;99.10;;;;;;5047256;28;20032;-81
2022/04/14 11:46:47;;;;;;;6.18;3.20;;;19.80;99.10;;;;;;5046703;28;20071;-81
2022/04/14 11:49:18;;;;;;;6.28;2.85;;;19.30;99.70;;;;;;5046161;28;20066;-82
2022/04/14 11:51:48;;;;;;;4.95;3.20;;;19.50;99.00;;;;;;5047490;28;20033;-82
2022/04/14 11:54:34;;;;;;;4.28;2.55;;;19.40;98.90;;;;;;5041909;28;20735;-82
2022/04/14 11:57:07;;;;;;;2.90;2.40;;;19.50;98.40;;;;;;5045349;28;20048;-82
2022/04/14 11:59:38;;;;;;;7.70;3.10;;;19.80;98.30;;;;;;5045286;28;20066;-82
2022/04/14 12:02:10;;;;;;;7.15;3.05;;;19.90;98.10;;;;;;5046072;28;20021;-82
2022/04/14 12:04:40;;;;;;;4.25;1.95;;;19.90;96.60;;;;;;5046520;28;20036;-81
2022/04/14 12:07:06;;;;;;;4.38;1.92;;;20.10;96.40;;;;;;5045416;28;20040;-81
2022/04/14 12:09:33;;;;;;;3.15;2.08;;;20.00;95.20;;;;;;5055057;28;20028;-80
2022/04/14 12:12:17;;;;;;;3.78;1.85;;;20.00;96.30;;;;;;5052548;28;20139;-81
2022/04/14 12:14:48;;;;;;;5.15;2.35;;;19.90;96.70;;;;;;5057789;28;20044;-81
2022/04/14 12:17:22;;;;;;;4.78;2.42;;;19.70;96.80;;;;;;5054001;28;20028;-81
2022/04/14 12:19:55;;;;;;;5.90;2.08;;;19.80;96.30;;;;;;5057712;28;20035;-81
2022/04/14 12:22:23;;;;;;;3.63;2.28;;;19.50;96.50;;;;;;5058142;28;20464;-81
2022/04/14 12:24:55;;;;;;;5.40;3.00;;;19.50;96.80;;;;;;5053742;28;20069;-80
2022/04/14 12:27:34;;;;;;;3.28;1.92;;;19.50;97.00;;;;;;5042575;28;20060;-81
2022/04/14 12:30:21;;;;;;;4.82;2.22;;;19.70;97.00;;;;;;5048604;28;20507;-80
2022/04/14 12:32:48;;;;;;;5.88;2.38;;;19.90;97.20;;;;;;5059685;28;20025;-80
2022/04/14 12:35:42;;;;;;;4.30;2.20;;;19.80;96.00;;;;;;5052664;28;20051;-80
2022/04/14 12:38:26;;;;;;;4.82;2.20;;;19.90;96.10;;;;;;5055570;28;20036;-81
2022/04/14 12:41:00;;;;;;;6.30;2.35;;;20.20;96.80;;;;;;5057967;28;20115;-81
2022/04/14 12:43:28;;;;;;;5.88;2.22;;;20.30;96.80;;;;;;5056875;28;20036;-80
2022/04/14 12:45:57;;;;;;;3.00;2.28;;;19.90;96.20;;;;;;5047214;28;20081;-81
2022/04/14 12:48:37;;;;;;;4.43;1.98;;;19.80;96.70;;;;;;5046287;28;20084;-80
2022/04/14 12:51:03;;;;;;;3.85;1.83;;;20.10;96.30;;;;;;5055478;28;20032;-80
2022/04/14 12:53:28;;;;;;;5.53;1.80;;;20.10;96.40;;;;;;5055674;28;20036;-80
2022/04/14 12:56:14;;;;;;;4.53;2.45;;;20.10;96.50;;;;;;5064708;28;20060;-80
2022/04/14 12:59:00;;;;;;;5.70;2.35;;;20.10;96.30;;;;;;5072184;28;20024;-80